Terminal Aerodrome Forecast
Issued by NWS Sterling, VA

Home | Current Version | Previous Version | Text Only | Print | Product List | Glossary On
Versions: 1 2 3 4 5 6 7 8 9 10 11 12 13 14 15
000
FTUS41 KLWX 242324
TAFMRB
TAF
KMRB 242324Z 2500/2524 09008KT 4SM -RA BR OVC025
     FM250200 08008KT 3SM -RA BR OVC008
     FM250700 03006KT 2SM BR OVC008
     FM251300 35005KT 2SM BR OVC008
     FM251800 33007KT P6SM OVC020=

USA.gov is the U.S. government's official web portal to all federal, state and local government web resources and services.